createdAt,value
2022-12-22T00:01:29.885Z,0.70
2022-12-22T00:04:16.177Z,0.77
2022-12-22T00:07:01.955Z,0.50
2022-12-22T00:09:48.109Z,0.60
2022-12-22T00:12:35.049Z,0.50
2022-12-22T00:15:20.908Z,0.70
2022-12-22T00:18:08.294Z,0.70
2022-12-22T00:20:54.516Z,0.70
2022-12-22T00:23:40.531Z,0.50
2022-12-22T00:26:27.656Z,0.60
2022-12-22T00:29:13.701Z,0.90
2022-12-22T00:32:00.115Z,0.90
2022-12-22T00:34:48.242Z,0.57
2022-12-22T00:37:34.448Z,0.73
2022-12-22T00:40:20.885Z,0.50
2022-12-22T00:43:06.839Z,0.60
2022-12-22T00:45:52.970Z,0.50
2022-12-22T00:48:40.441Z,0.53
2022-12-22T00:51:28.367Z,0.70
2022-12-22T00:54:14.742Z,0.60
2022-12-22T00:57:00.499Z,0.50
2022-12-22T00:59:47.071Z,0.60
2022-12-22T01:02:33.359Z,0.60
2022-12-22T01:05:19.225Z,0.50
2022-12-22T01:08:06.398Z,0.50
2022-12-22T01:10:52.548Z,0.60
2022-12-22T01:13:38.500Z,0.63
2022-12-22T01:16:24.580Z,0.50
2022-12-22T01:19:10.565Z,0.80
2022-12-22T01:21:56.468Z,0.57
2022-12-22T01:24:45.573Z,0.80
2022-12-22T01:27:31.618Z,0.70
2022-12-22T01:30:17.594Z,0.80
2022-12-22T01:33:03.567Z,0.53
2022-12-22T01:35:50.409Z,0.70
2022-12-22T01:38:36.396Z,0.80
2022-12-22T01:41:24.477Z,0.50
2022-12-22T01:44:10.226Z,0.60
2022-12-22T01:47:03.673Z,0.60
2022-12-22T01:49:52.659Z,0.60
2022-12-22T01:52:40.032Z,0.60
2022-12-22T01:55:28.676Z,0.50
2022-12-22T01:58:15.883Z,0.50
2022-12-22T02:01:01.846Z,0.70
2022-12-22T02:03:48.041Z,0.67
2022-12-22T02:06:36.361Z,0.80
2022-12-22T02:09:28.915Z,0.60
2022-12-22T02:12:21.386Z,0.60
2022-12-22T02:15:13.173Z,0.50
2022-12-22T02:18:03.013Z,0.60
2022-12-22T02:20:56.217Z,0.70
2022-12-22T02:24:04.055Z,0.50
2022-12-22T02:26:53.090Z,0.60
2022-12-22T02:29:40.640Z,0.50
2022-12-22T02:32:26.553Z,0.50
2022-12-22T02:35:12.599Z,0.50
2022-12-22T02:38:01.568Z,0.60
2022-12-22T02:40:51.157Z,0.40
2022-12-22T02:43:44.841Z,0.47
2022-12-22T02:46:34.647Z,0.40
2022-12-22T02:49:24.034Z,0.60
2022-12-22T02:52:11.653Z,0.60
2022-12-22T02:54:58.192Z,0.50
2022-12-22T02:57:44.221Z,0.50
2022-12-22T03:00:31.975Z,0.53
2022-12-22T03:03:18.464Z,0.40
2022-12-22T03:06:04.329Z,0.60
2022-12-22T03:08:50.393Z,0.53
2022-12-22T03:11:36.473Z,0.67
2022-12-22T03:14:22.414Z,0.70
2022-12-22T03:17:09.790Z,0.77
2022-12-22T03:19:55.798Z,0.93
2022-12-22T03:22:42.032Z,0.80
2022-12-22T03:25:27.884Z,0.57
2022-12-22T03:28:04.077Z,0.70
2022-12-22T03:30:32.273Z,0.60
2022-12-22T03:33:01.997Z,0.73
2022-12-22T03:35:30.341Z,0.47
2022-12-22T03:38:03.275Z,0.60
2022-12-22T03:40:32.274Z,0.60
2022-12-22T03:43:18.017Z,0.63
2022-12-22T03:46:03.816Z,0.70
2022-12-22T03:48:33.642Z,0.60
2022-12-22T03:51:01.980Z,0.67
2022-12-22T03:53:30.204Z,0.70
2022-12-22T03:56:04.093Z,0.60
2022-12-22T03:58:35.732Z,0.80
2022-12-22T04:01:07.960Z,0.60
2022-12-22T04:03:37.667Z,0.70
2022-12-22T04:06:06.087Z,0.60
2022-12-22T04:08:34.322Z,0.50
2022-12-22T04:11:25.779Z,0.50
2022-12-22T04:13:54.070Z,1.20
2022-12-22T04:16:22.392Z,0.40
2022-12-22T04:18:52.042Z,0.70
2022-12-22T04:21:20.378Z,0.50
2022-12-22T04:23:51.240Z,0.70
2022-12-22T04:26:19.797Z,1.00
2022-12-22T04:28:48.063Z,0.60
2022-12-22T04:31:16.424Z,0.70
2022-12-22T04:33:44.752Z,0.70
2022-12-22T04:36:14.713Z,0.63
2022-12-22T04:38:43.093Z,0.90
2022-12-22T04:41:11.338Z,1.00
2022-12-22T04:43:39.775Z,1.03
2022-12-22T04:46:08.273Z,1.40
2022-12-22T04:48:37.041Z,0.90
2022-12-22T04:51:05.462Z,0.60
2022-12-22T04:53:35.319Z,0.90
2022-12-22T04:56:04.239Z,0.60
2022-12-22T04:58:32.498Z,0.80
2022-12-22T05:01:09.682Z,0.50
2022-12-22T05:03:38.069Z,0.70
2022-12-22T05:06:06.811Z,0.80
2022-12-22T05:08:43.459Z,0.50
2022-12-22T05:11:11.731Z,0.47
2022-12-22T05:13:41.345Z,0.50
2022-12-22T05:16:10.691Z,0.70
2022-12-22T05:18:39.369Z,0.70
2022-12-22T05:21:08.410Z,0.50
2022-12-22T05:23:36.678Z,0.73
2022-12-22T05:26:06.495Z,1.00
2022-12-22T05:28:34.825Z,0.80
2022-12-22T05:31:05.213Z,0.90
2022-12-22T05:33:33.577Z,0.80
2022-12-22T05:36:01.992Z,0.60
2022-12-22T05:38:30.311Z,0.70
2022-12-22T05:41:04.096Z,0.77
2022-12-22T05:43:34.525Z,0.60
2022-12-22T05:46:05.873Z,0.50
2022-12-22T05:48:38.512Z,0.77
2022-12-22T05:51:08.221Z,0.90
2022-12-22T05:53:37.575Z,1.10
2022-12-22T05:56:06.025Z,0.80
2022-12-22T05:58:35.633Z,0.73
2022-12-22T06:01:03.820Z,0.80
2022-12-22T06:03:32.813Z,0.80
2022-12-22T06:06:01.416Z,0.67
2022-12-22T06:08:29.733Z,1.17
2022-12-22T06:10:58.696Z,0.83
2022-12-22T06:13:27.598Z,1.40
2022-12-22T06:15:57.190Z,1.43
2022-12-22T06:18:25.607Z,0.97
2022-12-22T06:20:54.814Z,2.30
2022-12-22T06:23:23.051Z,1.30
2022-12-22T06:25:57.542Z,1.57
2022-12-22T06:28:26.101Z,1.57
2022-12-22T06:30:54.446Z,2.20
2022-12-22T06:33:24.550Z,2.10
2022-12-22T06:35:58.640Z,2.10
2022-12-22T06:38:28.354Z,2.67
2022-12-22T06:40:56.979Z,1.60
2022-12-22T06:43:24.296Z,2.83
2022-12-22T06:45:52.622Z,1.90
2022-12-22T06:48:20.963Z,1.90
2022-12-22T06:50:50.574Z,3.90
2022-12-22T06:53:18.940Z,3.30
2022-12-22T06:55:47.186Z,1.83
2022-12-22T06:58:15.428Z,2.73
2022-12-22T07:00:45.482Z,2.50
2022-12-22T07:03:13.994Z,1.73
2022-12-22T07:05:42.581Z,2.27
2022-12-22T07:08:12.163Z,3.17
2022-12-22T07:10:58.723Z,2.70
2022-12-22T07:13:28.017Z,2.30
2022-12-22T07:16:00.557Z,2.33
2022-12-22T07:18:30.324Z,2.33
2022-12-22T07:20:58.643Z,2.97
2022-12-22T07:23:28.378Z,2.60
2022-12-22T07:25:56.640Z,3.10
2022-12-22T07:28:25.462Z,3.20
2022-12-22T07:30:54.520Z,3.40
2022-12-22T07:33:22.793Z,4.50
2022-12-22T07:35:51.339Z,4.47
2022-12-22T07:38:19.650Z,3.33
2022-12-22T07:40:52.018Z,2.90
2022-12-22T07:43:20.222Z,2.70
2022-12-22T07:45:48.496Z,2.60
2022-12-22T07:48:34.607Z,2.07
2022-12-22T07:51:04.969Z,1.20
2022-12-22T07:53:33.875Z,2.80
2022-12-22T07:56:05.268Z,1.40
2022-12-22T07:58:33.529Z,1.53
2022-12-22T08:01:02.069Z,1.40
2022-12-22T08:03:30.375Z,2.87
2022-12-22T08:05:58.592Z,3.50
2022-12-22T08:08:26.936Z,3.30
2022-12-22T08:10:55.218Z,4.43
2022-12-22T08:13:24.853Z,6.30
2022-12-22T08:15:53.080Z,4.90
2022-12-22T08:18:21.590Z,4.33
2022-12-22T08:20:53.068Z,3.17
2022-12-22T08:23:21.286Z,2.57
2022-12-22T08:25:50.720Z,4.33
2022-12-22T08:28:19.439Z,3.53
2022-12-22T08:30:49.318Z,6.20
2022-12-22T08:33:17.560Z,4.00
2022-12-22T08:35:45.807Z,4.90
2022-12-22T08:38:14.822Z,6.50
2022-12-22T08:40:44.884Z,5.53
2022-12-22T08:43:13.407Z,4.30
2022-12-22T08:45:42.468Z,4.30
2022-12-22T08:48:12.190Z,5.20
2022-12-22T08:50:40.811Z,4.87
2022-12-22T08:53:29.753Z,4.57
2022-12-22T08:55:58.281Z,3.03
2022-12-22T08:58:26.722Z,5.13
2022-12-22T09:00:56.099Z,6.60
2022-12-22T09:03:25.767Z,4.87
2022-12-22T09:05:53.957Z,3.37
2022-12-22T09:08:22.284Z,6.13
2022-12-22T09:10:50.564Z,6.70
2022-12-22T09:13:18.810Z,6.93
2022-12-22T09:15:46.979Z,4.37
2022-12-22T09:18:15.168Z,8.37
2022-12-22T09:20:44.741Z,5.70
2022-12-22T09:23:12.952Z,4.63
2022-12-22T09:25:41.505Z,8.87
2022-12-22T09:28:09.703Z,7.10
2022-12-22T09:30:38.058Z,10.53
2022-12-22T09:33:06.300Z,12.17
2022-12-22T09:35:34.539Z,11.20
2022-12-22T09:38:04.321Z,13.10
2022-12-22T09:40:33.617Z,13.23
2022-12-22T09:43:02.029Z,15.63
2022-12-22T09:45:30.375Z,13.93
2022-12-22T09:47:58.693Z,16.60
2022-12-22T09:50:28.088Z,11.30
2022-12-22T09:52:59.234Z,14.93
2022-12-22T09:55:39.979Z,15.00
2022-12-22T09:58:14.145Z,15.07
2022-12-22T10:00:42.493Z,12.73
2022-12-22T10:03:15.083Z,13.60
2022-12-22T10:05:46.019Z,14.70
2022-12-22T10:08:16.985Z,15.03
2022-12-22T10:10:46.538Z,11.60
2022-12-22T10:13:18.655Z,15.27
2022-12-22T10:15:47.025Z,14.60
2022-12-22T10:18:16.775Z,13.07
2022-12-22T10:20:46.860Z,16.30
2022-12-22T10:23:16.976Z,14.70
2022-12-22T10:26:27.478Z,13.47
2022-12-22T10:28:50.053Z,13.90
2022-12-22T10:31:21.113Z,13.03
2022-12-22T10:33:50.283Z,15.30
2022-12-22T10:36:21.879Z,12.40
2022-12-22T10:38:59.100Z,13.60
2022-12-22T10:41:29.704Z,12.80
2022-12-22T10:43:59.392Z,12.10
2022-12-22T10:46:38.766Z,14.33
2022-12-22T10:49:18.193Z,14.23
2022-12-22T10:51:47.719Z,14.60
2022-12-22T10:54:33.083Z,14.93
2022-12-22T10:57:03.883Z,15.80
2022-12-22T10:59:33.064Z,13.63
2022-12-22T11:02:16.317Z,15.43
2022-12-22T11:04:44.722Z,13.43
2022-12-22T11:07:12.908Z,15.87
2022-12-22T11:09:41.294Z,12.37
2022-12-22T11:12:15.320Z,13.20
2022-12-22T11:14:51.221Z,11.00
2022-12-22T11:17:23.329Z,11.63
2022-12-22T11:20:04.922Z,12.77
2022-12-22T11:22:36.578Z,12.70
2022-12-22T11:25:15.324Z,11.37
2022-12-22T11:27:48.634Z,9.60
2022-12-22T11:30:20.437Z,11.70
2022-12-22T11:32:55.518Z,11.80
2022-12-22T11:35:29.746Z,13.67
2022-12-22T11:38:01.933Z,13.50
2022-12-22T11:40:32.826Z,12.80
2022-12-22T11:43:10.929Z,11.93
2022-12-22T11:45:48.161Z,11.23
2022-12-22T11:48:27.744Z,12.00
2022-12-22T11:51:09.235Z,12.80
2022-12-22T11:54:04.098Z,14.43
2022-12-22T11:56:37.171Z,12.00
2022-12-22T11:59:15.937Z,12.07
2022-12-22T12:01:57.799Z,13.57
2022-12-22T12:04:41.477Z,13.97
2022-12-22T12:07:27.698Z,13.80
2022-12-22T12:10:00.634Z,14.53
2022-12-22T12:12:33.991Z,12.37
2022-12-22T12:15:18.335Z,11.50
2022-12-22T12:17:53.835Z,9.20
2022-12-22T12:20:33.590Z,12.63
2022-12-22T12:23:07.204Z,12.23
2022-12-22T12:25:40.706Z,13.33
2022-12-22T12:28:14.714Z,13.80
2022-12-22T12:30:47.477Z,14.60
2022-12-22T12:33:17.896Z,12.90
2022-12-22T12:35:57.291Z,13.53
2022-12-22T12:41:22.873Z,12.27
2022-12-22T12:43:51.909Z,12.67
2022-12-22T12:46:38.697Z,12.77
2022-12-22T12:49:28.250Z,9.97
2022-12-22T12:51:56.456Z,10.80
2022-12-22T12:54:36.046Z,8.70
2022-12-22T12:57:12.236Z,8.10
2022-12-22T12:59:47.675Z,6.87
2022-12-22T13:02:35.636Z,5.17
2022-12-22T13:05:07.080Z,4.73
2022-12-22T13:07:53.905Z,4.97
2022-12-22T13:10:25.691Z,4.93
2022-12-22T13:12:55.170Z,6.57
2022-12-22T13:15:30.705Z,6.10
2022-12-22T13:17:59.459Z,5.90
2022-12-22T13:20:31.399Z,5.43
2022-12-22T13:23:03.302Z,5.87
2022-12-22T13:25:41.867Z,5.30
2022-12-22T13:28:14.854Z,4.70
2022-12-22T13:30:47.321Z,5.40
2022-12-22T13:33:17.586Z,4.23
2022-12-22T13:35:51.015Z,5.00
2022-12-22T13:38:31.681Z,4.53
2022-12-22T13:41:00.570Z,3.70
2022-12-22T13:43:29.696Z,4.23
2022-12-22T13:45:58.518Z,3.60
2022-12-22T13:48:29.091Z,3.07
2022-12-22T13:51:00.236Z,3.07
2022-12-22T13:56:22.057Z,3.53
2022-12-22T13:59:00.440Z,2.50
2022-12-22T14:01:28.828Z,2.30
2022-12-22T14:04:00.889Z,2.00
2022-12-22T14:06:32.565Z,1.50
2022-12-22T14:09:18.161Z,1.50
2022-12-22T14:11:51.948Z,1.57
2022-12-22T14:14:22.587Z,1.30
2022-12-22T14:16:52.127Z,1.40
2022-12-22T14:19:21.764Z,1.63
2022-12-22T14:21:52.693Z,1.80
2022-12-22T14:24:23.586Z,1.47
2022-12-22T14:26:52.692Z,2.17
2022-12-22T14:29:26.695Z,2.37
2022-12-22T14:31:58.813Z,1.50
2022-12-22T14:34:28.102Z,1.67
2022-12-22T14:37:01.278Z,1.53
2022-12-22T14:39:31.514Z,1.33
2022-12-22T14:42:00.409Z,1.70
2022-12-22T14:44:32.455Z,1.20
2022-12-22T14:47:09.096Z,1.37
2022-12-22T14:49:37.617Z,1.40
2022-12-22T14:52:08.394Z,1.40
2022-12-22T14:54:37.791Z,1.30
2022-12-22T14:57:13.325Z,2.13
2022-12-22T14:59:58.944Z,1.30
2022-12-22T15:02:33.510Z,1.37
2022-12-22T15:05:12.512Z,1.60
2022-12-22T15:08:07.214Z,1.70
2022-12-22T15:10:39.107Z,1.33
2022-12-22T15:13:09.218Z,1.20
2022-12-22T15:15:37.528Z,1.63
2022-12-22T15:18:05.874Z,1.40
2022-12-22T15:20:39.432Z,1.30
2022-12-22T15:23:13.456Z,1.67
2022-12-22T15:25:41.752Z,1.40
2022-12-22T15:28:10.137Z,1.67
2022-12-22T15:30:38.580Z,1.47
2022-12-22T15:33:11.576Z,1.40
2022-12-22T15:35:39.819Z,1.90
2022-12-22T15:38:11.989Z,1.97
2022-12-22T15:40:41.591Z,2.40
2022-12-22T15:43:28.660Z,2.00
2022-12-22T15:45:58.682Z,2.20
2022-12-22T15:48:29.363Z,1.83
2022-12-22T15:50:57.863Z,1.50
2022-12-22T15:53:26.298Z,3.93
2022-12-22T15:55:58.796Z,2.20
2022-12-22T15:58:29.046Z,2.67
2022-12-22T16:00:57.696Z,2.30
2022-12-22T16:03:26.211Z,2.30
2022-12-22T16:05:54.701Z,2.53
2022-12-22T16:08:26.460Z,3.80
2022-12-22T16:10:56.172Z,2.87
2022-12-22T16:13:27.144Z,2.70
2022-12-22T16:15:57.173Z,2.80
2022-12-22T16:18:25.520Z,3.23
2022-12-22T16:20:54.084Z,2.50
2022-12-22T16:23:23.703Z,3.10
2022-12-22T16:26:01.763Z,2.60
2022-12-22T16:28:33.051Z,2.90
2022-12-22T16:31:02.473Z,2.93
2022-12-22T16:33:30.794Z,3.33
2022-12-22T16:35:59.019Z,3.43
2022-12-22T16:38:27.244Z,2.70
2022-12-22T16:40:55.585Z,3.27
2022-12-22T16:46:17.021Z,3.47
2022-12-22T16:48:47.020Z,4.60
2022-12-22T16:51:17.875Z,2.93
2022-12-22T16:53:48.719Z,3.57
2022-12-22T16:56:19.210Z,4.13
2022-12-22T16:58:48.024Z,3.70
2022-12-22T17:01:23.024Z,3.50
2022-12-22T17:03:51.510Z,3.77
2022-12-22T17:06:20.154Z,4.40
2022-12-22T17:08:48.762Z,4.00
2022-12-22T17:11:19.944Z,4.97
2022-12-22T17:13:48.203Z,4.53
2022-12-22T17:16:20.899Z,6.03
2022-12-22T17:19:00.913Z,5.30
2022-12-22T17:21:30.802Z,5.20
2022-12-22T17:24:03.657Z,6.03
2022-12-22T17:26:32.854Z,5.10
2022-12-22T17:29:01.147Z,6.80
2022-12-22T17:31:29.384Z,4.87
2022-12-22T17:33:58.392Z,7.50
2022-12-22T17:36:31.182Z,7.13
2022-12-22T17:38:59.532Z,6.80
2022-12-22T17:41:27.887Z,8.33
2022-12-22T17:43:56.134Z,9.37
2022-12-22T17:46:24.577Z,6.57
2022-12-22T17:48:53.093Z,10.03
2022-12-22T17:51:23.272Z,8.27
2022-12-22T17:53:53.313Z,9.33
2022-12-22T17:56:23.267Z,10.47
2022-12-22T17:58:51.700Z,9.43
2022-12-22T18:01:21.197Z,7.33
2022-12-22T18:03:49.741Z,8.27
2022-12-22T18:06:19.218Z,7.47
2022-12-22T18:08:47.994Z,7.83
2022-12-22T18:11:17.631Z,7.97
2022-12-22T18:13:46.042Z,8.57
2022-12-22T18:16:18.272Z,9.77
2022-12-22T18:18:47.625Z,9.13
2022-12-22T18:21:17.220Z,10.17
2022-12-22T18:23:49.936Z,7.00
2022-12-22T18:26:21.749Z,7.83
2022-12-22T18:28:50.242Z,8.53
2022-12-22T18:31:18.719Z,11.50
2022-12-22T18:33:47.293Z,8.57
2022-12-22T18:36:20.053Z,8.77
2022-12-22T18:38:48.697Z,9.20
2022-12-22T18:41:18.796Z,8.77
2022-12-22T18:43:48.404Z,6.87
2022-12-22T18:46:16.724Z,8.77
2022-12-22T18:48:45.192Z,7.73
2022-12-22T18:51:18.948Z,9.13
2022-12-22T18:53:47.220Z,7.23
2022-12-22T18:56:15.897Z,8.97
2022-12-22T18:58:44.440Z,7.73
2022-12-22T19:01:22.389Z,8.13
2022-12-22T19:03:50.790Z,6.70
2022-12-22T19:06:21.521Z,6.27
2022-12-22T19:08:50.046Z,8.43
2022-12-22T19:11:18.936Z,8.10
2022-12-22T19:13:48.467Z,5.23
2022-12-22T19:16:18.029Z,6.30
2022-12-22T19:18:47.704Z,7.53
2022-12-22T19:21:16.474Z,5.43
2022-12-22T19:23:44.976Z,5.43
2022-12-22T19:26:22.170Z,5.53
2022-12-22T19:28:51.138Z,7.63
2022-12-22T19:31:22.290Z,6.23
2022-12-22T19:33:52.108Z,5.50
2022-12-22T19:36:21.674Z,4.17
2022-12-22T19:38:51.177Z,5.60
2022-12-22T19:41:28.409Z,5.20
2022-12-22T19:43:56.779Z,5.17
2022-12-22T19:46:26.598Z,5.37
2022-12-22T19:48:57.006Z,4.80
2022-12-22T19:51:25.190Z,4.20
2022-12-22T19:53:54.305Z,4.20
2022-12-22T19:56:24.392Z,4.30
2022-12-22T19:58:53.015Z,3.60
2022-12-22T20:01:21.380Z,4.60
2022-12-22T20:03:49.789Z,4.33
2022-12-22T20:06:19.542Z,3.17
2022-12-22T20:08:47.787Z,3.70
2022-12-22T20:11:17.182Z,3.57
2022-12-22T20:13:45.879Z,4.10
2022-12-22T20:16:14.658Z,3.40
2022-12-22T20:18:43.349Z,3.47
2022-12-22T20:21:14.617Z,3.33
2022-12-22T20:23:44.273Z,2.50
2022-12-22T20:26:16.952Z,2.80
2022-12-22T20:28:45.190Z,2.97
2022-12-22T20:31:14.513Z,2.70
2022-12-22T20:33:43.266Z,2.80
2022-12-22T20:36:18.254Z,2.67
2022-12-22T20:38:48.327Z,2.27
2022-12-22T20:41:16.572Z,3.20
2022-12-22T20:43:44.922Z,2.93
2022-12-22T20:46:15.752Z,3.23
2022-12-22T20:48:45.157Z,2.80
2022-12-22T20:51:15.125Z,3.40
2022-12-22T20:53:43.655Z,2.83
2022-12-22T20:56:18.119Z,3.37
2022-12-22T20:58:46.467Z,3.70
2022-12-22T21:01:14.683Z,2.80
2022-12-22T21:03:43.136Z,3.00
2022-12-22T21:06:22.836Z,3.03
2022-12-22T21:08:51.165Z,3.00
2022-12-22T21:11:20.715Z,3.30
2022-12-22T21:13:48.973Z,3.13
2022-12-22T21:16:18.441Z,3.93
2022-12-22T21:18:46.951Z,2.93
2022-12-22T21:21:18.379Z,2.60
2022-12-22T21:23:46.606Z,3.67
2022-12-22T21:26:19.845Z,3.70
2022-12-22T21:28:49.614Z,2.90
2022-12-22T21:31:17.916Z,3.00
2022-12-22T21:33:47.179Z,2.60
2022-12-22T21:36:18.778Z,3.20
2022-12-22T21:38:47.391Z,2.63
2022-12-22T21:41:15.763Z,2.60
2022-12-22T21:43:51.253Z,4.10
2022-12-22T21:46:19.533Z,2.97
2022-12-22T21:48:47.846Z,3.20
2022-12-22T21:51:16.215Z,2.83
2022-12-22T21:53:44.576Z,2.87
2022-12-22T21:56:18.606Z,3.47
2022-12-22T21:58:47.003Z,2.90
2022-12-22T22:01:17.368Z,3.50
2022-12-22T22:03:45.705Z,2.77
2022-12-22T22:06:14.018Z,2.53
2022-12-22T22:08:42.235Z,2.87
2022-12-22T22:11:17.575Z,3.00
2022-12-22T22:13:45.855Z,3.40
2022-12-22T22:16:14.201Z,3.57
2022-12-22T22:18:44.380Z,3.10
2022-12-22T22:21:13.226Z,2.97
2022-12-22T22:23:41.673Z,2.43
2022-12-22T22:26:10.316Z,2.40
2022-12-22T22:28:38.572Z,2.37
2022-12-22T22:31:10.487Z,2.27
2022-12-22T22:33:38.854Z,2.10
2022-12-22T22:36:09.435Z,2.57
2022-12-22T22:38:38.124Z,2.50
2022-12-22T22:41:06.525Z,2.23
2022-12-22T22:43:34.734Z,2.80
2022-12-22T22:46:03.077Z,2.57
2022-12-22T22:48:31.352Z,1.90
2022-12-22T22:50:59.583Z,2.77
2022-12-22T22:53:30.643Z,2.93
2022-12-22T22:56:02.832Z,2.20
2022-12-22T22:58:31.002Z,2.80
2022-12-22T23:01:05.989Z,2.37
2022-12-22T23:03:34.374Z,1.90
2022-12-22T23:06:03.336Z,1.93
2022-12-22T23:08:33.520Z,1.83
2022-12-22T23:11:01.921Z,2.30
2022-12-22T23:13:30.271Z,2.10
2022-12-22T23:15:59.308Z,2.37
2022-12-22T23:18:27.893Z,2.00
2022-12-22T23:20:58.404Z,1.80
2022-12-22T23:23:26.620Z,1.73
2022-12-22T23:25:56.366Z,2.37
2022-12-22T23:28:25.884Z,1.80
2022-12-22T23:30:54.574Z,1.70
2022-12-22T23:33:22.804Z,2.10
2022-12-22T23:35:51.908Z,1.90
2022-12-22T23:38:20.872Z,1.90
2022-12-22T23:40:53.914Z,1.63
2022-12-22T23:43:24.122Z,2.53
2022-12-22T23:45:52.397Z,2.73
2022-12-22T23:48:20.582Z,1.47
2022-12-22T23:50:49.749Z,1.70
2022-12-22T23:53:18.494Z,1.80
2022-12-22T23:55:46.784Z,1.77
2022-12-22T23:58:15.207Z,1.70
